METAR-Meldungen aus der Umgebung

   
EDMO - Oberpfaffenhofen, Germany
Entfernung von der Station bis: SSO 18 km
Aktualisierung: 31-10-2020 14:50
Klar  
Klar  
   Wind: Windstille
Wind: Windstille
Temperatur: 18°C
Taupunkt: 7°C
Luftfeuchte: 49%
Luftdruck: 1022 hPa
Sichtbarkeit: Mehr als 10 km
Bewölkung: Klar ft
EDMO 311350Z 00000KT CAVOK 18/07 Q1022
ETSL - Lechfeld (ger-Af, Germany
Entfernung von der Station bis: WSW 23 km
Aktualisierung: 31-10-2020 14:20
  
  
   Wind: ONO 3.7 km/h
Wind: ONO 3.7 km/h
Temperatur: 16°C
Taupunkt: 8°C
Luftfeuchte: 59%
Luftdruck: 1022 hPa
Sichtbarkeit: Mehr als 10 km
ETSL 311320Z AUTO 07002KT 9999 // ////// 16/08 Q1022 ///
EDMA - Augsburg/Mulhaus, Germany
Entfernung von der Station bis: NW 30 km
Aktualisierung: 31-10-2020 14:50
Klar  
Klar  
   Wind: SO 9.3 km/h
Wind: SO 9.3 km/h
Temperatur: 16°C
Taupunkt: 10°C
Luftfeuchte: 68%
Luftdruck: 1022 hPa
Sichtbarkeit: Mehr als 10 km
Bewölkung: Klar ft
EDMA 311350Z 14005KT 110V170 CAVOK 16/10 Q1022
ETHA - Altenstadt/Schon, Germany
Entfernung von der Station bis: SSW 49 km
Aktualisierung: 31-10-2020 14:20
  
  
   Wind: Osten 1.9 km/h
Wind: Osten 1.9 km/h
Temperatur: 16°C
Taupunkt: 7°C
Luftfeuchte: 55%
Luftdruck: 1022 hPa
ETHA 311320Z AUTO 08001KT //// // ////// 16/07 Q1022 ///
EDDM - Munich-Flughafen, Germany
Entfernung von der Station bis: ONO 50 km
Aktualisierung: 31-10-2020 14:50
Klar  
Klar  
   Wind: Osten 9.3 km/h
Wind: Osten 9.3 km/h
Temperatur: 16°C
Taupunkt: 9°C
Luftfeuchte: 63%
Luftdruck: 1022 hPa
Sichtbarkeit: Mehr als 10 km
Bewölkung: Klar ft
EDDM 311350Z 10005KT 070V140 CAVOK 16/09 Q1022 NOSIG
 

Script entwickelt von  Saratoga-weather.org Angepasst für das Template von  Weerstation Leuven